Index of Z:\Media\Movies\Movies-Foreign

Up one directory...
NameSizeDate Modified
#Alive (2020)3,23 GB30/09/2020 01:51
0.0MHz (2019)7,49 GB14/09/2020 08:15
13 Assassins (2010)17,0 GB08/01/2020 14:26
13 Tzameti (2005)297 MB30/09/2020 01:52
1800 gramów (2019)8,72 GB30/09/2020 01:52
1945 (2017)5,46 GB30/09/2020 01:52
1987 - When the Day Comes (2017)12,8 GB30/09/2020 01:52
22 Bullets (2010)7,94 GB08/01/2020 14:26
26 Years (2012)3,72 GB30/09/2020 01:53
3 Faces (2018)6,50 GB30/09/2020 01:53
3-Iron (2004)6,55 GB30/09/2020 01:53
365 Days (2020)3,79 GB30/09/2020 01:53
7 Boxes (2012)4,15 GB30/09/2020 01:56
71 - Into the Fire (2010)8,74 GB08/01/2020 14:30
7500 (2019)7,64 GB30/09/2020 01:56
[REC]² (2009)9,18 GB20/01/2020 09:33
[REC]³ Genesis (2012)6,54 GB08/10/2020 15:49
[REC]⁴ Apocalypse (2014)6,55 GB08/10/2020 15:49
A Bay of Blood (1971)5,46 GB30/09/2020 01:56
A Better Tomorrow (1986)6,56 GB30/09/2020 01:56
A Better Tomorrow (2018)11,9 GB30/09/2020 01:57
A Better Tomorrow II (1987)7,65 GB30/09/2020 01:58
A Better Tomorrow III - Love and Death in Saigon (1989)7,94 GB30/09/2020 01:58
A Dirty Carnival (2006)12,3 GB30/09/2020 01:58
A Fantastic Woman (2017)10,5 GB08/01/2020 14:30
A Gentle Creature (2017)16,9 GB30/09/2020 01:58
A Happy Event (2011)8,28 GB30/09/2020 01:59
A Lizard in a Woman's Skin (1971)2,11 GB30/09/2020 01:59
A Man and a Woman (2016)10,3 GB30/09/2020 01:59
A Man in Love (1987)2,29 GB30/09/2020 01:59
A Moment to Remember (2004)6,96 GB30/09/2020 01:59
A Perfect Man (2015)6,48 GB08/01/2020 14:30
A Piece of Our Life (2009)1,78 GB30/09/2020 01:59
A Pigeon Sat on a Branch Reflecting on Existence (2014)7,65 GB30/09/2020 01:59
A Promise (2013)6,54 GB30/09/2020 01:59
A Serbian Film (2010)8,74 GB30/09/2020 01:59
A Small September Affair (2014)9,60 GB30/09/2020 01:59
A Somewhat Gentle Man (2010)6,13 GB30/09/2020 02:00
A Special Lady (2017)5,88 GB30/09/2020 02:03
A Taxi Driver (2017)17,0 GB30/09/2020 02:03
A Touch of Sin (2013)15,3 GB08/10/2020 13:44
A Trip to the Moon (1902)890 MB08/10/2020 13:44
A Very Long Engagement (2004)10,9 GB08/10/2020 13:45
A Werewolf Boy (2012)9,83 GB08/10/2020 13:45
Adam's Apples (2005)5,67 GB08/01/2020 14:30
Adrift in Tokyo (2007)8,09 GB08/10/2020 13:45
After My Death (2018)10,2 GB08/10/2020 13:46
Air (2015)8,77 GB08/10/2020 13:46
Ala Vaikunthapurramuloo (2020)7,27 GB08/10/2020 13:46
Alien Invasion (2018)6,54 GB08/10/2020 13:47
All for One (2011)5,45 GB08/10/2020 13:50
All for Two (2013)4,36 GB08/01/2020 15:28
All of You (2017)2,14 GB08/10/2020 13:51
All Things Fair (1995)535 MB08/10/2020 13:47
Alone+Together (2019)0,99 GB08/10/2020 13:51
Along with the Gods - The Last 49 Days (2018)19,1 GB08/10/2020 13:51
Always (2011)9,38 GB08/10/2020 13:51
Amer (2010)7,92 GB08/01/2020 15:29
Amores Perros (2000)19,7 GB13/04/2021 18:25
Amundsen (2019)9,34 GB08/10/2020 13:51
An Elephant Sitting Still (2018)20,6 GB08/10/2020 13:52
An Officer and a Spy (2019)5,70 GB08/10/2020 13:52
Anarchy Parlor (2015)6,54 GB08/10/2020 13:52
Andrei Rublev (1966)12,0 GB08/01/2020 15:29
Angels of Sex (2012)4,39 GB08/01/2020 15:32
Aniara (2018)10,9 GB08/01/2020 15:33
Animal World (2018)4,23 GB08/01/2020 15:33
April and the Extraordinary World (2015)6,54 GB08/10/2020 13:53
Architecture 101 (2012)10,1 GB08/10/2020 13:56
Ash Is Purest White (2018)16,6 GB08/01/2020 15:36
Ashes and Diamonds (1961)7,94 GB08/01/2020 15:39
Ashfall (2019)14,1 GB08/10/2020 13:56
Asterix & Obelix - Mission Cleopatra (2002)7,94 GB08/01/2020 15:40
Asterix - The Mansions of the Gods (2014)6,56 GB20/01/2020 09:27
Asterix and Cleopatra (1968)7,09 GB08/01/2020 15:42
Asterix and the Big Fight (1989)11,6 GB08/01/2020 15:43
Asterix and the Vikings (2006)6,10 GB08/01/2020 15:43
Asterix at the Olympic Games (2008)7,93 GB08/01/2020 15:46
Asterix Conquers America (1994)4,36 GB08/01/2020 15:40
Asterix in Britain (1986)8,10 GB08/01/2020 15:49
Asterix the Gaul (1967)5,85 GB08/01/2020 15:50
Attack on Titan II - End of the World (2015)1,55 GB08/01/2020 15:54
Attraction (2017)13,4 GB08/10/2020 13:56
Au Revoir les Enfants (1987)7,64 GB08/10/2020 13:57
Audition (2000)12,1 GB08/10/2020 13:57
Awarapan (2007)6,16 GB08/10/2020 13:57
Ayla - The Daughter of War (2017)7,25 GB08/10/2020 13:57
Bacurau (2019)17,8 GB08/10/2020 13:58
Bad Cat (2016)832 MB08/10/2020 13:58
Bad Genius (2017)12,9 GB08/10/2020 13:58
Barbara (2012)8,74 GB08/10/2020 13:58
Barcelona - A Love Untold (2016)1,25 GB08/10/2020 13:58
Barking Dogs Never Bite (2000)9,82 GB08/01/2020 16:01
Battle Royale (2000)13,3 GB08/01/2020 16:03
Battle Royale II - Requiem (2003)5,46 GB20/01/2020 09:27
Be with You (2018)11,9 GB08/10/2020 13:59
Beauty and the Beast (1946)8,74 GB08/10/2020 13:59
Bedevilled (2010)7,94 GB08/01/2020 16:07
Before We Grow Old (2019)577 MB08/10/2020 14:02
Being 17 (2016)7,65 GB08/01/2020 16:08
Believer (2018)11,9 GB08/01/2020 16:10
Belle de Jour (1967)9,83 GB08/01/2020 16:11
Belzebuth (2019)6,44 GB08/01/2020 16:14
Berlin Calling (2008)7,85 GB08/10/2020 14:02
Best of the Best 3 - No Turning Back (1995)6,54 GB08/10/2020 14:03
Bestseller (2010)11,9 GB08/10/2020 14:03
Bheeshma (2020)3,51 GB08/10/2020 14:03
Bicycle Thieves (1949)8,73 GB08/01/2020 16:18
Big Brother (2018)8,99 GB08/10/2020 14:04
Bilal - A New Breed of Hero (2016)8,46 GB08/01/2020 16:18
Birds of Passage (2018)10,7 GB08/10/2020 14:04
Black Cat, White Cat (1998)6,51 GB08/01/2020 16:20
Black Money (2019)13,0 GB08/10/2020 14:04
Black Orpheus (1959)9,83 GB08/10/2020 14:04
Blade of the Immortal (2017)15,3 GB08/01/2020 16:23
Blancanieves (2012)13,2 GB08/10/2020 14:04
Bleach (2018)1,96 GB08/10/2020 14:04
Blood and Black Lace (1964)6,55 GB08/10/2020 14:04
Blood Rain (2005)3,79 GB08/01/2020 16:24
Bloody Ballet (2018)4,13 GB20/01/2020 09:27
Blue Is the Warmest Color (2013)17,8 GB08/10/2020 14:05
Bluebeard (2017)559 MB08/10/2020 14:08
Bon Bini Holland 2 (2018)1,56 GB08/10/2020 14:08
Border (2018)6,55 GB09/01/2020 05:47
Breakaway (2012)1,07 GB08/10/2020 14:08
Breaking Surface (2020)2,92 GB08/10/2020 14:09
Bring Me Home (2019)11,6 GB08/10/2020 14:09
Brown Boys (2019)3,22 GB08/10/2020 14:09
Bruce Lee, My Brother (2010)8,74 GB08/10/2020 14:09
Bulbul Can Sing (2019)3,47 GB08/10/2020 14:10
Bullhead (2011)9,83 GB08/10/2020 14:10
Burn the Stage - The Movie (2018)7,26 GB09/01/2020 05:48
Burning (2018)9,83 GB09/01/2020 05:52
BuyBust (2018)16,4 GB08/10/2020 14:10
Caged Men (1971)1,77 GB08/10/2020 14:10
Cantinflas (2014)778 MB09/01/2020 05:53
Capernaum (2018)8,74 GB09/01/2020 05:53
Carbone (2017)23,8 GB09/01/2020 05:57
Carlos (2010)9,82 GB08/10/2020 14:11
Castaway on the Moon (2010)8,74 GB09/01/2020 05:57
Central Station (1998)10,9 GB09/01/2020 05:58
Chasing the Dragon II - Wild Wild Bunch (2019)6,66 GB08/10/2020 14:11
Chaw (2009)9,83 GB08/10/2020 14:11
Checkered Ninja (2018)4,30 GB08/10/2020 14:11
Children of Heaven (1997)8,74 GB09/01/2020 06:00
Children. (2011)699 MB09/01/2020 06:01
Chocolate (2008)7,94 GB08/10/2020 14:15
Christmas in August (1998)5,83 GB08/10/2020 14:15
Chrysalis (2008)7,94 GB09/01/2020 06:03
Chungking Express (1994)13,3 GB08/10/2020 14:15
Cinema Paradiso (2002)13,1 GB09/01/2020 06:04
Clash (2016)7,94 GB08/10/2020 14:15
Climax (2018)12,8 GB09/01/2020 06:05
Close-Up (1990)8,74 GB09/01/2020 06:07
Cold Fish (2010)11,5 GB08/10/2020 14:15
Cold Prey (2006)4,71 GB09/01/2020 06:08
Cold Prey II (2008)700 MB09/01/2020 06:08
Cold Prey III (2010)7,64 GB09/01/2020 06:11
Cold War (2018)10,9 GB09/01/2020 06:12
Come and See (1985)15,3 GB09/01/2020 06:12
Contempt (1964)6,55 GB09/01/2020 06:14
Cook Up a Storm (2017)13,0 GB08/10/2020 14:16
Corpus Christi (2019)4,98 GB08/10/2020 14:16
Crazy Samurai Musashi (2020)1,74 GB08/10/2020 14:16
Creepy (2016)9,83 GB08/10/2020 14:16
Crimson Rivers II - Angels of the Apocalypse (2004)4,37 GB08/10/2020 14:16
Crouching Tiger, Hidden Dragon (2000)8,74 GB09/01/2020 06:15
Curandero (2005)700 MB08/10/2020 14:16
[email protected] (2006)700 MB08/10/2020 14:17
[email protected] 2 (2009)696 MB08/10/2020 14:17
Dab6e (2015)3,67 GB08/10/2020 14:17
Dabbe 5 Zehr-i Cin (2014)5,34 GB08/10/2020 14:20
Dabbe Bir Cin Vakası (2012)2,01 GB08/10/2020 14:20
Dabbe Cin Çarpması (2013)4,30 GB08/10/2020 14:20
Dark Figure of Crime (2018)7,64 GB08/10/2020 14:21
Das Boot (1981)16,3 GB08/10/2020 14:21
Dead Kids (2019)3,93 GB08/10/2020 14:21
Dead Man's Shoes (2004)10,6 GB09/01/2020 06:18
Dead Snow 2 - Red vs. Dead (2014)6,54 GB08/10/2020 14:21
Death Note (2006)9,06 GB09/01/2020 06:19
Death Note - Light Up the New World (2016)17,4 GB09/01/2020 06:21
Death Note - The Last Name (2006)10,9 GB09/01/2020 06:22
Death of a Shadow (2012)1,45 GB08/10/2020 14:21
Default (2018)10,9 GB08/10/2020 14:22
Delibal (2015)3,10 GB08/10/2020 14:22
Delicatessen (1991)11,9 GB08/10/2020 14:22
Dèmoni (1985)8,74 GB08/10/2020 14:27
Demoni 2. L'incubo ritorna (1986)9,53 GB08/10/2020 14:22
Dersu Uzala (1975)8,18 GB08/10/2020 14:22
Destruction Babies (2016)4,67 GB08/10/2020 14:22
Detective Chinatown 2 (2018)14,9 GB08/10/2020 14:23
Diablo. Race for Everything (2019)4,13 GB08/10/2020 14:25
Disciples of the 36th Chamber (1985)8,58 GB08/10/2020 14:25
District B13 (2004)7,93 GB09/01/2020 06:22
Ditto (2000)7,64 GB08/10/2020 14:26
Dodes'ka-den (1970)14,2 GB08/10/2020 14:26
Dogman (2019)13,0 GB09/01/2020 06:25
Dogtooth (2009)8,74 GB09/01/2020 06:25
Don't Click (2012)3,31 GB08/10/2020 14:26
Don't Look Now - We're Being Shot At (1966)1,01 GB20/01/2020 09:28
Don't Torture a Duckling (1972)4,37 GB08/10/2020 14:26
Double Lover (2018)10,3 GB09/01/2020 06:26
Double World (2019)5,46 GB08/10/2020 14:26
Downfall (2004)10,9 GB09/01/2020 06:28
Dreams (1990)12,0 GB08/10/2020 14:26
Drive (1997)4,42 GB08/10/2020 14:26
Drive My Car (2021)23,2 GB25/02/2022 15:21
Drug War (2012)8,73 GB08/10/2020 14:26
Drunken Angel (1948)4,37 GB08/10/2020 14:27
Drunken Master (1978)9,83 GB09/01/2020 06:29
Dumb - The Story of Big Brother Magazine (2017)3,24 GB08/10/2020 14:27
Early Summer (1951)7,94 GB08/10/2020 14:27
Eat Drink Man Woman (1994)4,36 GB24/01/2020 05:28
El Infierno (2010)17,8 GB09/01/2020 06:32
El Topo (1970)8,74 GB09/01/2020 06:32
Elite Squad (2008)8,74 GB09/01/2020 06:32
Elle (2016)13,1 GB09/01/2020 06:35
Emergency Declaration (2022)15,4 GB12/11/2022 21:56
Enemy at the Gates (2001)14,8 GB08/10/2020 14:27
Enter the Dragon (1973)11,2 GB08/10/2020 14:28
Enter the Fat Dragon (2020)10,7 GB08/10/2020 14:28
Exiled (2006)7,93 GB08/10/2020 14:28
EXIT (2019)11,4 GB08/10/2020 14:27
Extreme Job (2019)11,0 GB08/10/2020 14:28
Eye For An Eye (2008)7,73 GB08/10/2020 14:28
Eyes Without a Face (1962)5,46 GB09/01/2020 06:35
F for Fake (1975)6,55 GB08/10/2020 14:29
Fagara (2019)12,2 GB08/10/2020 14:29
Fata Morgana (1971)6,55 GB08/10/2020 14:29
Fearless (2006)10,9 GB08/10/2020 14:29
Feng Shui (2004)3,78 GB08/10/2020 14:29
Fermat's Room (2007)10,8 GB09/01/2020 06:36
Field of Dreams (1989)12,5 GB08/10/2020 14:29
First Cow (2020)4,29 GB08/10/2020 14:33
First Love (2019)4,69 GB08/10/2020 14:33
Fist of Legend (1994)10,6 GB08/10/2020 14:34
Fitzcarraldo (1982)14,2 GB08/10/2020 14:34
Flawless (2018)1,40 GB09/01/2020 06:38
Flickering Lights (2000)2,30 GB09/01/2020 06:38
Forbidden Empire (2014)2,95 GB08/10/2020 14:34
Force Majeure (2014)8,73 GB08/10/2020 14:34
Forgotten (2017)9,37 GB08/10/2020 14:34
Friend Zone (2019)1,43 GB08/10/2020 14:34
From Beijing with Love (1994)6,92 GB09/01/2020 06:39
Fullmetal Alchemist (2018)12,6 GB09/01/2020 06:40
Funan (2019)9,83 GB09/01/2020 06:42
Furie (2019)7,65 GB09/01/2020 06:42
Fury of the Demon (2016)1,83 GB09/01/2020 06:43
Game of Death II (1981)7,40 GB08/10/2020 14:34
Gantz -O (2016)7,99 GB08/10/2020 14:34
Gary Gulman - The Great Depresh (2019)5,14 GB08/10/2020 14:34
Gauguin - Voyage to Tahiti (2017)7,64 GB08/10/2020 14:35
Genius Party (2007)5,45 GB08/10/2020 14:35
Ghidorah, the Three-Headed Monster (1964)8,74 GB08/10/2020 14:35
Girl (2018)7,94 GB09/01/2020 06:46
Gloria (2013)7,65 GB08/10/2020 14:35
Gods Crooked Lines (2022)6,77 GB10/12/2022 15:12
Godzilla (1954)8,73 GB08/10/2020 14:36
Godzilla - Final Wars (2004)9,84 GB08/10/2020 14:49
Godzilla - Tokyo S.O.S. (2003)7,94 GB08/10/2020 14:49
Godzilla vs. Mechagodzilla (1974)3,10 GB08/10/2020 14:49
Good Bye Lenin! (2003)12,5 GB08/10/2020 14:49
Good Morning (1959)8,74 GB08/10/2020 14:49
Good Morning Show (2016)4,52 GB08/10/2020 14:49
Goodbye to Language (2014)5,46 GB08/10/2020 14:49
Goyo - The Boy General (2018)7,42 GB08/10/2020 14:50
Gozu (2003)699 MB09/01/2020 06:46
Grand Illusion (1937)7,64 GB08/10/2020 14:50
Guardians (2017)8,07 GB08/10/2020 14:50
Gundala (2019)16,4 GB08/10/2020 14:53
Hagazussa (2018)7,63 GB08/10/2020 14:53
Hansel & Gretel (2007)698 MB08/10/2020 14:54
Happy End (2017)8,74 GB08/10/2020 14:54
Hara-Kiri - Death of a Samurai (2011)10,9 GB08/10/2020 14:54
Harakiri (1962)8,74 GB09/01/2020 06:49
Hatching (2022)4,84 GB21/06/2022 14:04
Head On (1998)7,63 GB08/10/2020 14:54
Headhunters (2011)10,8 GB08/10/2020 14:54
Headshot (2016)9,81 GB09/01/2020 06:49
Heart Blackened (2017)16,3 GB08/10/2020 14:54
Heavy Trip (2018)8,74 GB09/01/2020 06:50
Hell Girl (2019)6,68 GB08/10/2020 14:54
Hello Ghost (2010)1,45 GB09/01/2020 06:53
Hero (2002)13,3 GB08/10/2020 14:55
HERO (2015)9,70 GB08/10/2020 14:53
Hide And Seek (2013)1,77 GB08/10/2020 14:55
High and Low (1963)10,9 GB08/10/2020 14:55
High Tension (2003)7,93 GB08/10/2020 14:55
Hit-and-Run Squad (2019)15,5 GB08/10/2020 14:55
Holy Motors (2012)7,65 GB08/10/2020 14:55
Homestay (2018)4,82 GB08/10/2020 14:55
Hope (2013)5,73 GB08/10/2020 14:56
Horrors of Malformed Men (1969)462 MB08/10/2020 14:56
House (1977)7,94 GB08/10/2020 14:56
House of Flying Daggers (2004)15,5 GB08/10/2020 14:56
House of the Witch (2017)4,94 GB08/10/2020 14:56
Housebound (2014)7,64 GB08/10/2020 14:56
Huisvrouwen bestaan niet 2 (2019)2,30 GB08/10/2020 14:56
Hunting Emma (2017)4,84 GB08/10/2020 14:57
Hurricane (2018)10,3 GB08/10/2020 15:02
Hwayi - A Monster Boy (2013)10,8 GB08/10/2020 15:02
I Am a Hero (2016)12,9 GB08/10/2020 15:02
I Am Cuba (1964)5,87 GB08/10/2020 15:02
I Come with the Rain (2009)7,63 GB08/10/2020 15:03
I Fine.Thank You.Love You (2014)3,93 GB08/10/2020 15:03
I Live in Fear (1955)9,84 GB08/10/2020 15:03
I Saw the Devil (2010)17,8 GB09/01/2020 06:57
I Stand Alone (1999)5,44 GB09/01/2020 06:57
I'm No Longer Here (2019)3,79 GB08/10/2020 15:03
Iceman (2014)6,55 GB09/01/2020 07:00
Iceman - The Time Traveler (2018)8,73 GB09/01/2020 07:00
Ichi the Killer (2001)13,1 GB09/01/2020 07:01
Ikiru (1952)10,9 GB09/01/2020 07:02
Il Mare (2000)11,5 GB08/10/2020 15:03
Illang - The Wolf Brigade (2018)6,42 GB09/01/2020 07:05
Illumination (1973)6,56 GB08/10/2020 15:03
Ilo Ilo (2013)9,83 GB08/10/2020 15:03
Immortal Demon Slayer (2017)11,9 GB08/10/2020 15:03
In China They Eat Dogs (1999)7,65 GB09/01/2020 07:05
In the Aisles (2018)8,74 GB09/01/2020 07:05
In the Crosswind (2014)7,65 GB09/01/2020 07:09
In the Fade (2017)20,8 GB09/01/2020 07:09
In the Mood for Love (2000)9,83 GB08/10/2020 15:03
Incendies (2010)8,74 GB09/01/2020 07:09
Infernal Affairs (2002)7,94 GB08/10/2020 15:03
Inflame (2017)6,52 GB08/10/2020 15:04
ing (2003)8,77 GB08/10/2020 15:49
Initial D (2005)7,94 GB08/10/2020 15:04
Into the Dark (2012)419 MB08/10/2020 15:04
Intrigo - Dear Agnes (2019)3,46 GB08/10/2020 15:04
Inuyashiki (2018)11,2 GB08/10/2020 15:04
Invasion of Astro-Monster (1965)8,74 GB08/10/2020 15:07
Investigation of a Citizen Above Suspicion (1970)8,74 GB09/01/2020 07:10
Ip Man (2008)12,3 GB08/10/2020 15:07
Ip Man 2 (2010)14,5 GB08/10/2020 15:07
Ip Man 3 (2015)13,2 GB08/10/2020 15:07
Ip Man 4 - The Finale (2019)10,5 GB08/10/2020 15:07
Iron Monkey (1993)7,94 GB08/10/2020 15:07
Irreversible (2002)19,7 GB08/10/2020 15:07
Ismael's Ghosts (2017)9,83 GB09/01/2020 07:12
It Boy (2013)5,97 GB08/10/2020 15:07
It's All Gone Pete Tong (2004)7,85 GB08/10/2020 15:07
Je t'aime moi non plus (1976)6,55 GB08/10/2020 15:07
Jo Pil-ho - The Dawning Rage (2019)8,74 GB08/10/2020 15:07
Joint Security Area (2000)5,04 GB08/10/2020 15:08
JoJo's Bizarre Adventure - Diamond Is Unbreakable - Chapter 1 (2017)13,3 GB08/10/2020 15:08
Josh (2000)3,22 GB20/01/2020 09:31
Journey to the West (2014)4,37 GB09/01/2020 07:13
Journey to the West - The Demons Strike Back (2017)15,1 GB08/10/2020 15:08
Ju-on - Black Ghost (2009)4,42 GB08/10/2020 15:08
Ju-on - The Beginning of the End (2014)7,40 GB08/10/2020 15:08
Ju-on - The Curse (2000)702 MB08/10/2020 15:08
Ju-on - The Curse 2 (2000)1,40 GB08/10/2020 15:08
Ju-on - The Final Curse (2015)7,01 GB08/10/2020 15:08
Ju-on - The Grudge (2002)4,52 GB08/10/2020 15:08
Ju-on - The Grudge 2 (2003)7,05 GB08/10/2020 15:08
Ju-on - White Ghost (2009)5,80 GB08/10/2020 15:09
Judgementall Hai Kya (2019)1,50 GB09/01/2020 07:13
Just The Way You Are (2015)5,87 GB08/10/2020 15:09
K.G.F - Chapter 1 (2018)2,57 GB08/10/2020 15:09
Kagemusha (1980)15,3 GB08/10/2020 15:09
Kedi (2017)6,55 GB08/10/2020 15:09
Keep an Eye Out (2018)8,25 GB09/01/2020 07:17
Kids (1995)7,64 GB08/10/2020 15:09
Kikujiro (1999)11,1 GB08/10/2020 15:09
Killing for the Prosecution (2018)11,9 GB08/10/2020 15:09
King and the Clown (2005)8,73 GB09/01/2020 07:17
Kingdom (2019)5,86 GB08/10/2020 15:09
Kiss Me You Fucking Moron (2013)5,46 GB09/01/2020 07:20
Klown Forever (2015)7,65 GB08/10/2020 15:09
Korczak (1990)8,74 GB08/10/2020 15:09
Kung Fu Dunk (2008)2,64 GB24/01/2020 05:28
Kung Fu Hustle (2004)7,94 GB09/01/2020 07:20
Kung Fu Jungle (2014)9,39 GB08/10/2020 15:09
Kung Fu League (2018)8,70 GB08/10/2020 15:10
Kung Fu Traveler (2017)3,11 GB09/01/2020 07:21
Kung Fu Traveler 2 (2017)2,62 GB09/01/2020 07:21
Kung Fu Yoga (2017)8,74 GB09/01/2020 07:25
Kunwara (2000)699 MB09/01/2020 07:25
Kwaidan (1964)13,3 GB09/01/2020 07:26
L - Change the World (2008)8,74 GB09/01/2020 07:27
L'Argent (1984)7,55 GB08/10/2020 15:10
L'Avventura (1961)8,74 GB09/01/2020 07:29
La Belle Epoque (2019)6,56 GB08/10/2020 15:10
La Femme Nikita (1991)21,6 GB09/01/2020 07:29
La Grande Bouffe (1973)8,74 GB08/10/2020 15:10
La Vie en Rose (2007)8,74 GB20/01/2020 09:31
Land of Mine (2015)8,73 GB09/01/2020 07:30
Laplace's Witch (2018)12,2 GB09/01/2020 07:30
Lapland Odyssey (2010)6,55 GB09/01/2020 07:33
Last Men in Aleppo (2017)469 MB08/10/2020 15:10
Le Samouraï (1967)9,83 GB08/10/2020 15:10
Lee Rock (1991)9,09 GB08/10/2020 15:10
Legends of Valhalla - Thor (2011)5,59 GB09/01/2020 07:33
Legion of Brothers (2017)3,27 GB08/10/2020 15:10
Lemon Popsicle (1978)1,42 GB09/01/2020 07:33
Les Misérables (1934)5,46 GB09/01/2020 07:34
Les Misérables (2019)7,64 GB08/10/2020 15:10
Let the Right One In (2008)12,8 GB09/01/2020 07:36
Let the Sunshine In (2017)4,37 GB08/10/2020 15:10
Lion of the Desert (1981)10,9 GB08/10/2020 15:11
Liz in September (2014)5,05 GB09/01/2020 07:37
Lone Wolf and Cub - Baby Cart at the River Styx (1972)6,56 GB08/10/2020 15:11
Lone Wolf and Cub - Sword of Vengeance (1972)6,55 GB08/10/2020 15:11
Long Day's Journey Into Night (2018)9,84 GB08/10/2020 15:11
Lord, Give Me Patience (2017)7,65 GB08/10/2020 15:11
Lost Bullet (2020)1,77 GB08/10/2020 15:14
Love Off the Cuff (2017)5,21 GB08/10/2020 15:14
Loveless (2017)10,9 GB09/01/2020 07:37
Lovers' Concerto (2002)13,4 GB08/10/2020 15:14
Lu Over the Wall (2017)8,75 GB08/10/2020 15:14
Lucid Dream (2017)3,57 GB08/10/2020 15:14
Lucky Grandma (2019)11,4 GB08/10/2020 15:14
Lumumba (2000)1,49 GB08/10/2020 15:14
M (1931)9,84 GB08/10/2020 15:15
Mad Monkey Kung Fu (1979)1,12 GB09/01/2020 07:40
Madadayo (1993)8,74 GB08/10/2020 15:15
Malena (2000)7,94 GB09/01/2020 07:40
Margaret Cho - PsyCHO (2015)5,57 GB08/10/2020 15:15
Maria (2019)2,58 GB09/01/2020 07:43
Maria Full of Grace (2004)7,92 GB09/01/2020 07:43
Marilyn (2018)3,13 GB08/10/2020 15:15
Marketa Lazarová (1967)20,7 GB08/10/2020 15:15
Marlina the Murderer in Four Acts (2017)6,55 GB09/01/2020 07:44
Martyrs (2008)7,95 GB08/10/2020 15:15
Masquerade (2012)12,0 GB09/01/2020 07:45
Masquerade Hotel (2019)9,20 GB08/10/2020 15:15
Master Z - Ip Man Legacy (2018)12,2 GB09/01/2020 07:47
Mater (2017)1,93 GB08/10/2020 15:15
Max Manus - Man of War (2008)14,2 GB09/01/2020 07:48
Mediterraneo (1991)9,27 GB09/01/2020 07:48
Mektoub, My Love - Canto Uno (2017)1,29 GB09/01/2020 07:48
Memories of Murder (2003)16,1 GB08/10/2020 15:15
Memories of the Sword (2015)13,8 GB08/10/2020 15:15
Merantau (2009)9,66 GB08/10/2020 15:15
Merci La Vie (1991)12,8 GB06/04/2021 16:33
Midnight Family (2019)5,24 GB08/10/2020 15:15
Midnight FM (2010)7,95 GB08/10/2020 15:17
Minuscule - Valley of the Lost Ants (2013)5,44 GB08/10/2020 15:16
Miracle in Cell No. 7 (2013)8,73 GB09/01/2020 07:51
Miracle in Cell No. 7 (2019)4,72 GB08/10/2020 15:16
Mirror (1975)7,65 GB08/10/2020 15:16
Miss Bala (2011)7,65 GB09/01/2020 07:51
Miss Granny (2014)9,97 GB08/10/2020 15:16
Missing 2 (2017)4,41 GB08/10/2020 15:16
Mobile Homes (2018)4,11 GB09/01/2020 07:51
Modern Love (2008)6,55 GB08/10/2020 15:16
Money (2019)7,65 GB08/10/2020 15:16
Monk Comes Down the Mountain (2015)10,1 GB08/10/2020 15:16
Monos (2019)10,5 GB09/01/2020 07:52
Monster Hunt (2015)7,64 GB08/10/2020 15:16
Monster Hunt 2 (2018)7,62 GB08/10/2020 15:16
Monštrum (2018)11,0 GB08/10/2020 15:17
Montage (2013)10,1 GB08/10/2020 15:17
Mosquita y Mari (2012)0,99 GB09/01/2020 07:54
Mother (1926)11,5 GB08/10/2020 15:17
Mother (2009)8,74 GB09/01/2020 07:55
Mothra vs. Godzilla (1964)3,14 GB08/10/2020 15:17
Motichoor Chaknachoor (2019)2,76 GB08/10/2020 15:17
Mourning Grave (2014)7,65 GB08/10/2020 15:17
Mr. Six (2015)541 MB08/10/2020 15:17
Mr. Vampire (1985)3,93 GB08/10/2020 15:17
Mucize (2015)6,00 GB08/10/2020 15:17
Muhammad - The Messenger of God (2015)6,58 GB08/10/2020 15:18
Mulan Rise of a Warrior (2009)8,72 GB08/10/2020 15:20
Mustang (2015)15,2 GB19/04/2021 15:43
My Dad is a Heel Wrestler (2018)8,49 GB09/01/2020 07:55
My Life as a Zucchini (2016)7,35 GB08/10/2020 15:20
My Sassy Girl (2001)10,8 GB08/10/2020 15:20
My Sassy Girl (2008)2,91 GB08/10/2020 15:21
Naked Weapon (2002)10,0 GB08/10/2020 15:21
Nameless Gangster (2012)11,9 GB08/10/2020 15:21
Neon Bull (2016)7,65 GB08/10/2020 15:21
Never Ending Story (2012)1,36 GB09/01/2020 07:56
Never Look Away (2018)13,1 GB09/01/2020 07:58
Nevrland (2019)6,53 GB08/10/2020 15:21
New World (2013)9,83 GB08/10/2020 15:21
Night Is Short, Walk on Girl (2017)8,50 GB08/10/2020 15:21
Ninja in the Dragon's Den (1982)1,98 GB08/10/2020 15:21
No Mercy (2010)2,62 GB08/10/2020 15:22
No Regrets for Our Youth (1946)10,9 GB08/10/2020 15:22
No Tears for the Dead (2014)8,74 GB08/10/2020 15:22
Nostalgia (2018)15,2 GB08/10/2020 15:22
Nothing to Hide (2018)1,72 GB08/10/2020 15:22
November (2017)7,45 GB08/10/2020 15:22
Occult (2009)1,60 GB09/01/2020 07:59
Of Fathers and Sons (2018)7,65 GB08/10/2020 15:22
Old Men in New Cars - In China They Eat Dogs II (2002)7,65 GB08/10/2020 15:22
Oldboy (2003)12,0 GB09/01/2020 07:59
Omerta (2018)920 MB08/10/2020 15:23
On Body and Soul (2017)7,93 GB09/01/2020 08:00
On the Job (2013)7,94 GB08/10/2020 15:23
Once Upon a Time in Anatolia (2011)11,5 GB08/10/2020 15:23
Once Upon a Time in China (1991)14,2 GB08/10/2020 15:23
Once Upon a Time in China and America (1997)7,92 GB08/10/2020 15:23
Once Upon a Time in China II (1992)8,74 GB08/10/2020 15:23
Once Upon a Time in China III (1993)2,35 GB08/10/2020 15:23
One Cut of the Dead (2017)7,65 GB20/01/2020 09:31
One Wonderful Sunday (1947)4,37 GB08/10/2020 15:23
Ong Bak - Muay Thai Warrior (2003)7,92 GB09/01/2020 08:02
Ong Bak 2 (2008)7,92 GB08/10/2020 15:23
Ong Bak 3 (2010)10,1 GB08/10/2020 15:23
Operation Red Sea (2018)9,83 GB09/01/2020 08:02
Ordet (1955)7,94 GB08/10/2020 15:23
Orpheus (1950)6,55 GB08/10/2020 15:24
Oslo, August 31st (2011)4,69 GB20/01/2020 09:32
Our Little Sister (2015)13,5 GB08/10/2020 15:24
Out in the Open (2019)7,19 GB08/10/2020 15:24
Outrage (2010)7,94 GB08/10/2020 15:24
OVER DRIVE (2018)8,99 GB08/10/2020 15:22
Paisan (1946)11,9 GB09/01/2020 08:03
Pandemic - COVID-19 (2020)343 MB08/10/2020 15:24
Paradox (2017)6,55 GB08/10/2020 15:24
Pee Mak Phrakanong (2013)7,51 GB08/10/2020 15:24
Pee Nak (2019)3,84 GB08/10/2020 15:24
Peninsula (2020)4,16 GB08/10/2020 15:24
Peppermint Candy (2000)8,74 GB09/01/2020 08:05
Permanent Green Light (2019)8,36 GB09/01/2020 08:06
Pierrot le Fou (1965)7,94 GB08/10/2020 15:24
Pieta (2013)3,40 GB09/01/2020 08:06
Pinocchio (2019)9,14 GB08/10/2020 15:24
Pippi in the South Seas (1970)1,21 GB09/01/2020 08:09
Pippi Longstocking (1969)1,23 GB09/01/2020 08:08
Pippi on the Run (1970)1,13 GB09/01/2020 08:09
Poetry (2011)9,82 GB09/01/2020 08:09
Police Story (1985)9,11 GB08/10/2020 15:27
Police Story 2 (1988)14,4 GB08/10/2020 15:27
Police Story 2013 (2013)8,74 GB08/10/2020 15:27
Portrait of a Lady on Fire (2019)10,4 GB08/10/2020 15:28
Pray For Death (1985)7,94 GB08/10/2020 15:28
Priceless (2006)7,94 GB08/10/2020 15:28
Private Benjamin (1980)11,2 GB08/10/2020 15:28
Project A (1983)7,65 GB09/01/2020 08:12
Project A 2 (1987)7,94 GB08/10/2020 15:28
Psychic Kusuo (2017)6,54 GB08/10/2020 15:28
Psychokinesis (2018)3,13 GB08/10/2020 15:28
PTU (2003)10,7 GB08/10/2020 15:24
Public Enemy (2002)700 MB09/01/2020 08:12
Pulse (2001)12,0 GB08/10/2020 15:28
Punishment Park (1971)6,55 GB08/10/2020 15:28
Queen of Hearts (2019)8,68 GB20/01/2020 09:32
Quest for Fire (1981)4,62 GB08/10/2020 15:29
Racer and the Jailbird (2017)10,0 GB09/01/2020 08:13
Railroad Man (1999)7,65 GB08/10/2020 15:29
Railroad Tigers (2016)12,0 GB09/01/2020 08:16
Raise the Red Lantern (1991)7,94 GB09/01/2020 08:16
Rampant (2018)14,3 GB09/01/2020 08:17
Ran (1985)18,1 GB08/10/2020 15:29
Rashomon (1950)6,55 GB08/10/2020 15:29
Raw (2016)7,65 GB09/01/2020 08:17
Reaching for the Moon (2013)4,50 GB09/01/2020 08:20
Read My Lips (2001)7,48 GB09/01/2020 08:21
Red Beard (1965)11,4 GB08/10/2020 15:29
Red Cliff (2009)19,7 GB09/01/2020 08:21
Red Cliff Part II (2009)13,8 GB09/01/2020 08:22
Reincarnation (2005)2,34 GB08/10/2020 15:29
Remi, Nobody's Boy (2018)5,24 GB09/01/2020 08:25
Rendel (2017)12,4 GB08/10/2020 15:29
Return to the 36th Chamber (1980)7,94 GB08/10/2020 15:30
Revenge of the Ninja (1983)6,72 GB08/10/2020 15:30
Ride Your Wave (2019)8,49 GB08/10/2020 15:30
Right Now, Wrong Then (2015)8,74 GB08/10/2020 15:30
Ringu (1998)11,5 GB08/10/2020 15:30
Rise of the Legend (2014)10,9 GB08/10/2020 15:30
Robowar (1988)9,83 GB08/10/2020 15:30
Rodin (2017)8,74 GB09/01/2020 08:25
Rogue (2007)7,93 GB08/10/2020 15:31
Romulus & Remus - The First King (2019)8,74 GB09/01/2020 08:26
Rough Cut (2008)7,64 GB08/10/2020 15:31
Ruby & Quentin (2003)6,55 GB08/10/2020 15:31
Rurouni Kenshin (2012)9,82 GB09/01/2020 08:26
Russian Ark (2002)3,27 GB09/01/2020 08:30
Rust and Bone (2012)10,9 GB08/10/2020 15:31
Sadako (2019)9,00 GB08/10/2020 15:31
Sadako vs. Kayako (2016)8,60 GB08/10/2020 15:31
Sakura Guardian in the North (2018)5,06 GB08/10/2020 15:31
Salaam-e-Ishq (2007)3,45 GB08/10/2020 15:31
Salvatore Giuliano (1962)7,65 GB09/01/2020 08:30
Salyut-7 (2017)12,4 GB08/10/2020 15:31
Samurai I - Musashi Miyamoto (1954)7,65 GB08/10/2020 15:31
Samurai II - Duel at Ichijoji Temple (1955)4,37 GB08/10/2020 15:32
Samurai III - Duel at Ganryu Island (1956)8,74 GB08/10/2020 15:32
Sanjuro (1962)1,61 GB08/10/2020 15:32
Sanky Panky (2007)699 MB08/10/2020 15:34
Sanshiro Sugata (1965)4,56 GB08/10/2020 15:34
Sanshiro Sugata Part Two (1945)5,35 GB08/10/2020 15:34
Santa Fe Trail (1940)3,36 GB08/10/2020 15:35
Scandal Makers (2008)7,93 GB08/10/2020 15:35
Secret Reunion (2010)4,37 GB08/10/2020 15:35
Secret Sunshine (2007)15,2 GB09/01/2020 08:30
Secret Zoo (2020)8,99 GB08/10/2020 15:35
Secretly, Greatly (2013)9,82 GB08/10/2020 15:35
Seondal - The Man Who Sells the River (2016)12,6 GB09/01/2020 08:31
Seven Samurai (1954)17,4 GB09/01/2020 08:33
Seven Years of Night (2018)5,05 GB08/10/2020 15:35
Sex, Party and Lies (2009)9,16 GB08/10/2020 15:35
Shadow (2018)13,0 GB09/01/2020 08:34
Shaolin Soccer (2001)6,55 GB08/10/2020 15:35
Shaolin Wooden Men (1976)2,25 GB08/10/2020 15:35
Shéhérazade (2018)10,9 GB08/10/2020 15:35
Shin Godzilla (2016)12,7 GB08/10/2020 15:35
Shinjuku Incident (2009)7,92 GB08/10/2020 15:35
Shinobi - Heart Under Blade (2005)10,4 GB08/10/2020 15:35
Shogun Assassin (1980)6,56 GB09/01/2020 08:34
Shutter (2004)3,80 GB24/01/2020 05:28
Silenced (2011)14,8 GB09/01/2020 08:37
Sin Nombre (2009)11,5 GB09/01/2020 08:37
Sky Hunter (2017)7,63 GB08/10/2020 15:35
Smuggling Hendrix (2018)6,12 GB09/01/2020 08:38
Snake in the Eagle's Shadow (1978)9,83 GB08/10/2020 15:36
So Long, My Son (2019)22,0 GB08/10/2020 15:36
Solaris (1972)15,3 GB09/01/2020 08:42
Sold (2016)3,28 GB09/01/2020 08:42
Son of Godzilla (1967)3,05 GB08/10/2020 15:36
Son of Saul (2015)7,64 GB09/01/2020 08:42
Songs from the Second Floor (2000)7,63 GB08/10/2020 15:36
Space Battleship Yamato (2010)9,83 GB08/10/2020 15:36
Special Effects (1984)7,93 GB08/10/2020 15:36
Special ID (2013)11,1 GB08/10/2020 15:36
Spring, Summer, Fall, Winter. and Spring (2003)10,6 GB09/01/2020 08:43
Stalingrad (1993)11,1 GB08/10/2020 15:36
Stalker (1979)12,0 GB09/01/2020 08:45
Stealing Rembrandt (2003)3,14 GB08/10/2020 15:36
Step Up - Year of the Dance (2019)2,97 GB08/10/2020 15:36
Stray Dogs (2013)9,83 GB08/10/2020 15:36
Sunny (2011)9,83 GB09/01/2020 08:46
Super 30 (2019)1,62 GB08/10/2020 15:36
Suriname (2020)3,83 GB08/10/2020 15:36
Sweet Bean (2015)8,74 GB08/10/2020 15:36
Swing Kids (2018)9,83 GB09/01/2020 08:47
Sympathy for Lady Vengeance (2005)12,8 GB09/01/2020 08:50
Sympathy for Mr. Vengeance (2002)10,1 GB09/01/2020 08:50
System Crasher (2019)12,4 GB08/10/2020 15:36
T-34 (2018)5,06 GB09/01/2020 08:51
Tae Guk Gi - The Brotherhood of War (2004)14,5 GB08/10/2020 15:37
Tag (2015)2,38 GB08/10/2020 15:37
Tailgating (2019)7,03 GB08/10/2020 15:37
Take Point (2018)7,56 GB08/10/2020 15:37
Taxi (1998)6,55 GB09/01/2020 08:51
Taxi 2 (2000)3,81 GB09/01/2020 08:54
Taxi 3 (2003)3,78 GB09/01/2020 08:54
Taxi 4 (2007)6,56 GB09/01/2020 08:54
Taxi 5 (2018)13,2 GB09/01/2020 08:55
Tazza - One Eyed Jack (2019)5,32 GB09/01/2020 08:57
Tazza - The Hidden Card (2014)9,83 GB09/01/2020 08:58
Tazza - The High Rollers (2007)1,69 GB20/01/2020 09:32
TEKKEN (2010)7,94 GB08/10/2020 15:37
Terror of Mechagodzilla (1975)1,60 GB08/10/2020 15:37
Thank You for Calling (2015)6,54 GB08/10/2020 15:37
The 12th Man (2017)9,83 GB09/01/2020 08:58
The 36th Chamber of Shaolin (1978)11,3 GB09/01/2020 08:59
The 3rd Eye 2 (2019)4,15 GB08/10/2020 15:37
The 400 Blows (1959)10,1 GB08/10/2020 15:37
The Admiral - Roaring Currents (2014)13,2 GB08/10/2020 15:37
The Adventures of Baron Munchausen (1988)11,2 GB20/01/2020 09:32
The Age of Shadows (2016)10,9 GB08/10/2020 15:37
The Attorney (2013)11,7 GB09/01/2020 09:01
The Bad Guys - Reign of Chaos (2019)14,1 GB08/10/2020 15:37
The Bad Sleep Well (1960)6,55 GB08/10/2020 15:37
The Battle of Chernobyl (2006)1,29 GB09/01/2020 09:01
The Battleship Island (2017)5,72 GB08/10/2020 15:37
The Beat That My Heart Skipped (2005)7,94 GB09/01/2020 09:02
The Best of Youth (2003)7,65 GB09/01/2020 09:02
The Best Offer (2013)12,8 GB08/10/2020 15:37
The Big Bad Fox and Other Tales (2017)6,55 GB09/01/2020 09:06
The Bird with the Crystal Plumage (1970)9,83 GB08/10/2020 15:37
The Blackout - Invasion Earth (2019)12,0 GB08/10/2020 15:38
The Bodyguard (2016)4,22 GB08/10/2020 15:38
The Breath (2009)8,74 GB08/10/2020 15:38
The Cabinet of Dr. Caligari (1920)6,55 GB08/10/2020 15:38
The Ceremony (1971)12,0 GB08/10/2020 15:38
The Chaser (2008)14,5 GB08/10/2020 15:38
The Chosen - Forbidden Cave (2015)1,70 GB08/10/2020 15:38
The Classic (2003)5,68 GB08/10/2020 15:41
The Coldest Game (2019)2,83 GB08/10/2020 15:41
The Concert (2009)10,9 GB08/10/2020 15:41
The Concubine (2012)8,74 GB08/10/2020 15:41
The Confession (1970)13,1 GB08/10/2020 15:41
The Counterfeiters (2007)7,94 GB08/10/2020 15:41
The Crimson Rivers (2000)9,46 GB08/10/2020 15:41
The Dark Kingdom (2018)832 MB08/10/2020 15:41
The Dark Valley (2014)9,45 GB09/01/2020 09:06
The Day We Died (2020)8,87 GB08/10/2020 15:41
The Debut (2000)8,70 GB09/01/2020 09:07
The Debutantes (2017)1,41 GB08/10/2020 15:41
The Divine Fury (2019)4,51 GB08/10/2020 15:41
The Divine Move (2014)9,99 GB08/10/2020 15:41
The Diving Bell and the Butterfly (2007)10,7 GB09/01/2020 09:07
The Drug King (2018)6,57 GB08/10/2020 15:41
The Dude in Me (2019)3,37 GB08/10/2020 15:41
The End of April (2017)3,47 GB08/10/2020 15:41
The Enforcer (1995)6,54 GB08/10/2020 15:42
The Eye 2 (2004)917 MB08/10/2020 15:42
The Family (2013)10,2 GB08/10/2020 15:42
The Farewell (2019)7,64 GB09/01/2020 09:10
The Fire Within (1963)10,9 GB08/10/2020 15:42
The First Temptation of Christ (2019)1,39 GB20/01/2020 09:32
The Five Venoms (1978)6,55 GB09/01/2020 09:10
The Flu (2013)8,74 GB27/12/2020 21:37
The Forbidden Kingdom (2008)11,0 GB08/10/2020 15:42
The Fortress (2017)17,6 GB08/10/2020 15:42
The Fugitive Kind (1960)12,0 GB08/10/2020 15:42
The Gangster, the Cop, the Devil (2019)7,81 GB08/10/2020 15:42
The Girl Allergic to Wi-Fi (2018)5,90 GB08/10/2020 15:42
The Girl Who Kicked the Hornet's Nest (2009)10,9 GB09/01/2020 09:11
The Girl Who Knew Too Much (1963)7,65 GB08/10/2020 15:42
The Girl Who Played with Fire (2009)7,94 GB09/01/2020 09:11
The Girl with the Dragon Tattoo (2009)11,9 GB09/01/2020 09:14
The God of Cookery (1996)238 MB09/01/2020 09:14
The Golden Dream (2013)9,83 GB08/10/2020 15:42
The Good, The Bad, The Weird (2008)13,6 GB08/10/2020 15:42
The Grandmaster (2013)11,4 GB09/01/2020 09:14
The Great Battle (2018)18,1 GB09/01/2020 09:15
The Great Beauty (2013)12,1 GB09/01/2020 09:18
The Great Muppet Caper (1981)7,65 GB08/10/2020 15:42
The Green Butchers (2003)12,3 GB08/10/2020 15:42
The Guilty (2018)10,8 GB09/01/2020 09:18
The Handmaiden (2016)14,2 GB09/01/2020 09:19
The Happiness of the Katakuris (2001)7,64 GB08/10/2020 15:42
The Hellbenders (1967)8,38 GB08/10/2020 15:42
The Hidden Fortress (1958)9,83 GB08/10/2020 15:42
The Horde (2010)8,72 GB08/10/2020 15:42
The Host (2006)10,9 GB08/10/2020 15:42
The Hows of Us (2018)1,07 GB08/10/2020 15:42
The Immortal (2019)6,99 GB08/10/2020 15:42
The Inhabitant (2017)1,96 GB08/10/2020 15:42
The Insult (2017)9,83 GB09/01/2020 09:19
The Intouchables (2011)14,2 GB08/10/2020 15:42
The Journalist (2019)3,99 GB08/10/2020 15:42
The Killing Room (2009)10,1 GB08/10/2020 15:42
The Last Dance (1993)4,81 GB08/10/2020 15:42
The Last King (2016)8,74 GB08/10/2020 15:42
The Legend of 1900 (1998)17,0 GB09/01/2020 09:21
The Legend of Drunken Master (2000)7,95 GB09/01/2020 09:24
The Leopard (1963)18,5 GB09/01/2020 09:24
The Limits of Control (2009)8,74 GB08/10/2020 15:42
The Lost Arcade (2015)2,19 GB08/10/2020 15:43
The Lost Bladesman (2011)7,92 GB08/10/2020 15:43
The Lover (1992)8,70 GB08/10/2020 15:43
The Lower Depths (1957)5,00 GB08/10/2020 15:43
The Man from Nowhere (2010)8,73 GB08/10/2020 15:43
The Man Standing Next (2020)15,2 GB08/10/2020 15:43
The Men Who Tread on the Tiger's Tail (1945)5,46 GB08/10/2020 15:43
The Mermaid (2016)7,65 GB08/10/2020 15:43
The Mimic (2017)11,1 GB08/10/2020 15:43
The Monkey King (2014)7,63 GB08/10/2020 15:43
The Monkey King 2 (2016)8,74 GB08/10/2020 15:43
The Monkey King 3 (2018)7,18 GB08/10/2020 15:43
The Motorcycle Diaries (2004)10,9 GB08/10/2020 15:43
The Namesake (2006)9,42 GB09/01/2020 09:24
The Negotiation (2018)12,0 GB08/10/2020 15:43
The New Adventures of Pippi Longstocking (1988)10,3 GB09/01/2020 09:25
The New King of Comedy (2019)5,70 GB08/10/2020 15:43
The New World (2005)16,3 GB08/10/2020 15:43
The Night Comes for Us (2018)3,71 GB09/01/2020 09:26
The Nightmare (2015)5,45 GB08/10/2020 15:43
The Odd Family - Zombie on Sale (2019)9,95 GB08/10/2020 15:43
The Orphanage (2007)9,97 GB08/10/2020 15:43
The Patience Stone (2012)4,36 GB20/01/2020 09:35
The Phantom Carriage (1921)9,83 GB08/10/2020 15:46
The Pillow Book (1996)7,64 GB08/10/2020 15:46
The Platform (2019)5,05 GB08/10/2020 15:46
The Prince of Nothingwood (2017)4,71 GB09/01/2020 09:28
The Prison (2017)5,42 GB08/10/2020 15:46
The Professional (1981)9,95 GB09/01/2020 09:29
The Protector (2005)8,72 GB08/10/2020 15:46
The Quake (2018)7,65 GB09/01/2020 09:29
The Quiet Duel (1949)3,65 GB08/10/2020 15:47
The Raid (2011)7,64 GB09/01/2020 09:29
The Raid 2 (2014)12,0 GB08/10/2020 15:47
The Resistance Banker (2018)4,25 GB20/01/2020 09:32
The Salesman (2016)1,37 GB09/01/2020 09:30
The Search (2014)1,58 GB09/01/2020 09:33
The Secret in Their Eyes (2009)10,8 GB20/01/2020 09:32
The Shaolin Temple (1982)1,84 GB08/10/2020 15:47
The Skin I Live In (2011)13,9 GB08/10/2020 15:47
The Song of Sparrows (2008)702 MB08/10/2020 15:47
The Specials (2019)13,4 GB08/10/2020 15:47
The Spirit of the Beehive (1973)4,19 GB08/10/2020 15:47
The Spy Gone North (2018)9,63 GB08/10/2020 15:47
The Square (2008)8,74 GB08/10/2020 15:47
The Storm Warriors (2009)4,77 GB08/10/2020 15:47
The Story of O (1975)11,3 GB08/10/2020 15:47
The Sunlit Night (2020)2,70 GB08/10/2020 15:47
The Suspect (2014)7,37 GB09/01/2020 09:33
The Sword of Doom (1966)7,65 GB09/01/2020 09:34
The Terror Live (2013)7,64 GB08/10/2020 15:47
The Throne (2015)9,83 GB08/10/2020 15:47
The Tiger - An Old Hunter's Tale (2015)9,83 GB08/10/2020 15:47
The Tobacconist (2018)7,65 GB09/01/2020 09:34
The Train (1964)13,1 GB08/10/2020 15:47
The Traitor (2019)6,57 GB08/10/2020 15:47
The Treacherous (2015)4,35 GB08/10/2020 15:47
The Trough (2018)7,65 GB08/10/2020 15:47
The Umbrellas of Cherbourg (1964)6,55 GB08/10/2020 15:47
The Uninvited (2003)700 MB08/10/2020 15:48
The Unity of Heroes (2018)4,37 GB08/10/2020 15:47
The Unthinkable (2018)6,14 GB08/10/2020 15:47
The Vanishing (1988)8,73 GB08/10/2020 15:47
The Villainess (2017)12,0 GB09/01/2020 09:37
The Visitors (1993)8,74 GB09/01/2020 09:38
The Visitors - Bastille Day (2016)7,65 GB08/10/2020 15:47
The Visitors II - The Corridors of Time (1998)9,83 GB09/01/2020 09:38
The Wailing (2016)18,1 GB08/10/2020 15:47
The Wandering Earth (2019)14,8 GB09/01/2020 09:38
The Wave (2015)10,7 GB08/10/2020 15:47
The Whistlers (2020)4,52 GB08/10/2020 15:47
The White Haired Witch of Lunar Kingdom (2014)7,64 GB08/10/2020 15:48
The Witch - Part 1. The Subversion (2018)5,44 GB08/10/2020 15:48
The Wrath (2018)9,92 GB08/10/2020 15:48
Thelma (2017)14,1 GB09/01/2020 09:39
There Are Monsters (2015)6,29 GB08/10/2020 15:48
Thesis (1996)7,65 GB08/10/2020 15:48
Thirst (2009)16,0 GB09/01/2020 09:41
This Is England (2006)7,93 GB08/10/2020 15:48
Three Colors - Blue (1993)6,55 GB09/01/2020 09:42
Three Colors - Red (1994)7,94 GB09/01/2020 09:42
Three Colors - White (1994)6,55 GB09/01/2020 09:42
Three Kingdoms - Resurrection of the Dragon (2008)7,92 GB08/10/2020 15:48
Tigers Are Not Afraid (2017)9,41 GB09/01/2020 09:43
Timbuktu (2014)8,46 GB08/10/2020 15:48
Time to Hunt (2020)6,65 GB08/10/2020 15:48
Tintin and the Blue Oranges (1964)2,18 GB08/10/2020 15:48
Tintin and the Mystery of the Golden Fleece (1961)2,18 GB08/10/2020 15:48
Tokyo Ghoul 'S' (2019)8,48 GB08/10/2020 15:48
Torrente 5 (2014)5,57 GB08/10/2020 15:48
Torso (1973)8,12 GB08/10/2020 15:48
Train to Busan (2016)8,74 GB09/01/2020 09:47
True Legend (2010)11,4 GB08/10/2020 15:48
Twin Dragons (1992)6,55 GB09/01/2020 09:47
Two Days, One Night (2014)6,55 GB09/01/2020 09:48
Ugetsu (1954)9,83 GB09/01/2020 09:49
Under the Bombs (2007)2,18 GB08/10/2020 15:48
Unknown (2006)6,55 GB08/10/2020 15:48
Unknown Origins (2020)2,47 GB08/10/2020 15:48
Unstoppable (2018)10,6 GB08/10/2020 15:48
Upin & Ipin - Keris Siamang Tunggal (2019)408 MB09/01/2020 09:52
Us x Her (2022)2,48 GB01/12/2022 00:20
Victoria (2015)9,83 GB20/01/2020 09:33
Videoman (2018)5,19 GB08/10/2020 15:48
Vive la France (2013)6,55 GB08/10/2020 15:48
Warriors of Future (2022)4,41 GB03/12/2022 22:48
Warriors of the Nation (2018)4,12 GB08/10/2020 15:48
We Are the Flesh (2016)6,54 GB09/01/2020 09:53
Weekend (1968)6,55 GB09/01/2020 09:53
What's Left of You (2015)4,88 GB08/10/2020 15:48
Wheel of Fortune and Fantasy (2021)11,5 GB02/09/2022 23:21
While at War (2019)7,65 GB08/10/2020 15:48
White Fang (2018)6,55 GB09/01/2020 09:56
White The Melody of the Curse (2011)2,02 GB08/10/2020 15:48
Why Don't You Just Die! (2018)4,26 GB08/10/2020 15:49
Wild Strawberries (1957)6,55 GB09/01/2020 09:56
Wild Tales (2014)9,90 GB09/01/2020 09:56
Windstorm 3 (2017)4,77 GB08/10/2020 15:49
Wolf Warrior (2015)6,55 GB09/01/2020 09:57
Wolf Warrior 2 (2017)9,83 GB09/01/2020 09:58
Woman at War (2018)11,9 GB09/01/2020 10:02
Yamakasi (2001)8,40 GB08/10/2020 15:49
Yi Yi (2000)12,0 GB08/10/2020 15:49
Yojimbo (1961)9,81 GB09/01/2020 10:02
You, the Living (2007)7,89 GB08/10/2020 15:49
Your Name. (2016)9,36 GB08/10/2020 15:49
Yummy (2019)5,60 GB08/10/2020 15:49
Zama (2017)10,3 GB09/01/2020 10:02
Zatoichi (2003)9,83 GB08/10/2020 15:49
ZMD - Zombies of Mass Destruction (2009)8,68 GB08/10/2020 15:49
Zu - Warriors from the Magic Mountain (1983)2,06 GB08/10/2020 15:49
Zu Warriors (2001)6,13 GB08/10/2020 15:49